createdAt,value
2023-03-21T00:01:56.570Z,99990.94
2023-03-21T00:04:24.923Z,99990.97
2023-03-21T00:06:51.484Z,99987.02
2023-03-21T00:09:18.720Z,99986.86
2023-03-21T00:11:45.735Z,99987.78
2023-03-21T00:14:14.936Z,99988.14
2023-03-21T00:16:41.873Z,99987.26
2023-03-21T00:19:09.766Z,99983.64
2023-03-21T00:21:49.123Z,99982.00
2023-03-21T00:24:23.280Z,99975.14
2023-03-21T00:26:50.541Z,99972.41
2023-03-21T00:29:17.556Z,99969.88
2023-03-21T00:31:44.069Z,99967.86
2023-03-21T00:36:42.241Z,99968.02
2023-03-21T00:39:09.726Z,99966.73
2023-03-21T00:41:42.773Z,99962.02
2023-03-21T00:44:13.719Z,99960.57
2023-03-21T00:46:48.990Z,99958.56
2023-03-21T00:49:21.077Z,99950.47
2023-03-21T00:51:51.767Z,99947.96
2023-03-21T00:54:18.536Z,99943.45
2023-03-21T00:56:45.288Z,99939.34
2023-03-21T00:59:11.710Z,99939.00
2023-03-21T01:01:38.263Z,99935.05
2023-03-21T01:04:07.423Z,99933.48
2023-03-21T01:06:39.986Z,99933.69
2023-03-21T01:09:13.077Z,99930.32
2023-03-21T01:11:40.346Z,99929.63
2023-03-21T01:14:21.494Z,99932.34
2023-03-21T01:16:50.358Z,99927.51
2023-03-21T01:19:25.529Z,99929.67
2023-03-21T01:21:55.196Z,99925.31
2023-03-21T01:24:22.235Z,99927.98
2023-03-21T01:26:48.770Z,99925.09
2023-03-21T01:29:15.327Z,99922.55
2023-03-21T01:31:41.851Z,99914.26
2023-03-21T01:34:08.298Z,99915.33
2023-03-21T01:36:34.792Z,99918.36
2023-03-21T01:39:01.225Z,99914.94
2023-03-21T01:41:42.572Z,99912.79
2023-03-21T01:44:17.278Z,99914.96
2023-03-21T01:47:11.483Z,99910.34
2023-03-21T01:49:46.062Z,99907.85
2023-03-21T01:52:29.658Z,99907.89
2023-03-21T01:55:03.854Z,99906.84
2023-03-21T01:57:45.133Z,99908.83
2023-03-21T02:00:15.665Z,99907.56
2023-03-21T02:02:52.146Z,99901.27
2023-03-21T02:05:22.443Z,99902.91
2023-03-21T02:07:50.453Z,99900.95
2023-03-21T02:10:17.031Z,99896.30
2023-03-21T02:12:43.442Z,99896.14
2023-03-21T02:15:11.087Z,99889.48
2023-03-21T02:17:40.834Z,99890.00
2023-03-21T02:20:11.677Z,99886.21
2023-03-21T02:23:24.708Z,99881.87
2023-03-21T02:26:14.293Z,99876.79
2023-03-21T02:28:51.971Z,99875.85
2023-03-21T02:31:40.700Z,99877.48
2023-03-21T02:34:40.592Z,99875.54
2023-03-21T02:37:38.809Z,99878.44
2023-03-21T02:40:27.104Z,99877.33
2023-03-21T02:43:22.626Z,99874.63
2023-03-21T02:46:08.715Z,99874.27
2023-03-21T02:48:50.220Z,99876.83
2023-03-21T02:51:21.574Z,99876.48
2023-03-21T02:54:24.576Z,99874.73
2023-03-21T02:56:46.173Z,99875.13
2023-03-21T02:59:14.621Z,99873.36
2023-03-21T03:01:41.100Z,99874.48
2023-03-21T03:04:29.571Z,99869.64
2023-03-21T03:06:58.759Z,99868.40
2023-03-21T03:09:49.038Z,99870.56
2023-03-21T03:12:26.350Z,99871.13
2023-03-21T03:15:17.818Z,99871.89
2023-03-21T03:18:03.022Z,99871.31
2023-03-21T03:20:52.664Z,99870.56
2023-03-21T03:23:52.004Z,99867.48
2023-03-21T03:26:41.366Z,99865.31
2023-03-21T03:29:13.377Z,99864.95
2023-03-21T03:31:45.366Z,99861.35
2023-03-21T03:34:20.762Z,99860.45
2023-03-21T03:36:56.286Z,99859.73
2023-03-21T03:39:29.752Z,99855.06
2023-03-21T03:42:15.553Z,99853.30
2023-03-21T03:44:48.541Z,99852.59
2023-03-21T03:47:33.688Z,99853.85
2023-03-21T03:50:08.992Z,99859.07
2023-03-21T03:52:53.632Z,99855.31
2023-03-21T03:55:23.640Z,99859.84
2023-03-21T03:57:50.404Z,99859.50
2023-03-21T04:00:17.605Z,99857.55
2023-03-21T04:02:45.571Z,99861.36
2023-03-21T04:05:12.361Z,99863.15
2023-03-21T04:07:39.295Z,99860.59
2023-03-21T04:10:06.209Z,99858.77
2023-03-21T04:12:32.629Z,99861.97
2023-03-21T04:15:08.136Z,99860.85
2023-03-21T04:17:38.296Z,99859.20
2023-03-21T04:20:12.012Z,99858.66
2023-03-21T04:22:41.980Z,99857.59
2023-03-21T04:25:09.187Z,99855.59
2023-03-21T04:27:35.670Z,99853.98
2023-03-21T04:30:03.415Z,99854.02
2023-03-21T04:32:34.019Z,99856.01
2023-03-21T04:35:01.116Z,99853.67
2023-03-21T04:37:27.983Z,99853.33
2023-03-21T04:39:54.505Z,99853.35
2023-03-21T04:42:21.143Z,99851.95
2023-03-21T04:44:48.988Z,99852.16
2023-03-21T04:47:16.595Z,99850.55
2023-03-21T04:49:43.220Z,99849.15
2023-03-21T04:52:09.714Z,99844.66
2023-03-21T04:54:36.172Z,99846.09
2023-03-21T04:57:02.911Z,99840.52
2023-03-21T04:59:29.367Z,99837.08
2023-03-21T05:01:56.918Z,99833.48
2023-03-21T05:04:23.448Z,99830.23
2023-03-21T05:06:50.027Z,99832.73
2023-03-21T05:09:16.635Z,99831.09
2023-03-21T05:11:44.052Z,99831.11
2023-03-21T05:14:14.800Z,99832.71
2023-03-21T05:17:04.215Z,99832.90
2023-03-21T05:19:40.759Z,99836.71
2023-03-21T05:22:10.294Z,99840.13
2023-03-21T05:24:39.394Z,99836.00
2023-03-21T05:27:05.912Z,99839.05
2023-03-21T05:29:33.709Z,99834.92
2023-03-21T05:32:01.443Z,99834.21
2023-03-21T05:34:28.734Z,99835.30
2023-03-21T05:36:55.734Z,99838.73
2023-03-21T05:39:22.264Z,99835.86
2023-03-21T05:41:48.723Z,99838.34
2023-03-21T05:44:15.573Z,99838.29
2023-03-21T05:46:43.379Z,99842.74
2023-03-21T05:49:11.453Z,99844.19
2023-03-21T05:51:38.002Z,99843.96
2023-03-21T05:54:04.511Z,99852.23
2023-03-21T05:56:31.028Z,99851.68
2023-03-21T05:58:57.463Z,99854.16
2023-03-21T06:01:24.100Z,99854.31
2023-03-21T06:03:50.600Z,99856.96
2023-03-21T06:06:17.063Z,99855.52
2023-03-21T06:08:43.536Z,99856.23
2023-03-21T06:11:20.742Z,99852.95
2023-03-21T06:13:47.188Z,99853.23
2023-03-21T06:16:13.699Z,99853.89
2023-03-21T06:18:40.251Z,99852.60
2023-03-21T06:21:07.012Z,99853.27
2023-03-21T06:23:33.590Z,99859.35
2023-03-21T06:26:00.301Z,99858.22
2023-03-21T06:28:26.865Z,99856.34
2023-03-21T06:30:53.336Z,99859.66
2023-03-21T06:33:19.826Z,99863.02
2023-03-21T06:35:51.970Z,99857.59
2023-03-21T06:38:18.453Z,99855.92
2023-03-21T06:40:48.636Z,99857.09
2023-03-21T06:43:18.692Z,99857.38
2023-03-21T06:45:46.171Z,99854.56
2023-03-21T06:48:12.783Z,99850.85
2023-03-21T06:50:39.477Z,99853.41
2023-03-21T06:53:06.520Z,99849.86
2023-03-21T06:55:32.980Z,99848.14
2023-03-21T06:57:59.429Z,99843.40
2023-03-21T07:00:26.213Z,99844.81
2023-03-21T07:02:53.886Z,99842.91
2023-03-21T07:05:20.687Z,99844.92
2023-03-21T07:07:48.484Z,99849.77
2023-03-21T07:10:15.020Z,99848.12
2023-03-21T07:12:41.583Z,99848.49
2023-03-21T07:15:09.315Z,99846.71
2023-03-21T07:17:35.849Z,99846.74
2023-03-21T07:20:04.177Z,99843.15
2023-03-21T07:22:30.600Z,99845.80
2023-03-21T07:25:04.754Z,99846.88
2023-03-21T07:27:32.120Z,99850.02
2023-03-21T07:29:58.699Z,99849.26
2023-03-21T07:32:30.065Z,99847.59
2023-03-21T07:34:56.789Z,99847.05
2023-03-21T07:37:24.009Z,99844.84
2023-03-21T07:39:51.458Z,99843.23
2023-03-21T07:42:18.073Z,99841.34
2023-03-21T07:44:44.613Z,99840.48
2023-03-21T07:47:11.223Z,99838.61
2023-03-21T07:49:37.910Z,99839.98
2023-03-21T07:52:06.758Z,99836.54
2023-03-21T07:54:33.692Z,99839.20
2023-03-21T07:57:00.258Z,99839.36
2023-03-21T07:59:26.881Z,99840.71
2023-03-21T08:01:53.356Z,99843.32
2023-03-21T08:04:19.970Z,99838.79
2023-03-21T08:06:46.493Z,99841.95
2023-03-21T08:09:13.035Z,99841.95
2023-03-21T08:11:40.672Z,99843.23
2023-03-21T08:14:07.326Z,99841.95
2023-03-21T08:16:33.797Z,99835.60
2023-03-21T08:19:00.612Z,99832.41
2023-03-21T08:21:27.640Z,99828.25
2023-03-21T08:23:54.187Z,99827.79
2023-03-21T08:26:21.408Z,99819.13
2023-03-21T08:28:47.871Z,99821.30
2023-03-21T08:31:15.017Z,99825.96
2023-03-21T08:33:41.531Z,99824.06
2023-03-21T08:36:08.722Z,99818.65
2023-03-21T08:38:35.964Z,99814.49
2023-03-21T08:41:02.976Z,99815.50
2023-03-21T08:43:29.861Z,99811.52
2023-03-21T08:45:56.831Z,99814.33
2023-03-21T08:48:23.405Z,99813.73
2023-03-21T08:50:50.031Z,99812.04
2023-03-21T08:53:16.504Z,99810.19
2023-03-21T08:55:44.776Z,99807.23
2023-03-21T08:58:11.344Z,99804.73
2023-03-21T09:00:37.872Z,99801.80
2023-03-21T09:03:04.966Z,99798.35
2023-03-21T09:05:31.593Z,99798.89
2023-03-21T09:07:58.114Z,99794.55
2023-03-21T09:10:24.586Z,99794.61
2023-03-21T09:12:52.910Z,99789.27
2023-03-21T09:15:21.942Z,99785.29
2023-03-21T09:17:52.851Z,99781.45
2023-03-21T09:20:25.980Z,99785.77
2023-03-21T09:22:53.802Z,99785.73
2023-03-21T09:25:21.701Z,99777.52
2023-03-21T09:27:48.366Z,99778.12
2023-03-21T09:30:20.094Z,99778.88
2023-03-21T09:32:48.693Z,99774.80
2023-03-21T09:35:19.606Z,99780.30
2023-03-21T09:37:47.312Z,99778.73
2023-03-21T09:40:31.221Z,99782.23
2023-03-21T09:43:08.110Z,99783.18
2023-03-21T09:45:50.557Z,99782.38
2023-03-21T09:48:37.621Z,99786.15
2023-03-21T09:51:15.852Z,99785.13
2023-03-21T09:53:44.925Z,99780.77
2023-03-21T09:56:13.653Z,99779.01
2023-03-21T09:58:46.704Z,99776.27
2023-03-21T10:01:28.284Z,99774.36
2023-03-21T10:03:56.740Z,99777.58
2023-03-21T10:06:30.652Z,99773.70
2023-03-21T10:09:09.263Z,99770.84
2023-03-21T10:11:44.344Z,99767.48
2023-03-21T10:14:21.409Z,99766.39
2023-03-21T10:16:52.478Z,99764.70
2023-03-21T10:19:19.795Z,99761.69
2023-03-21T10:22:01.348Z,99761.60
2023-03-21T10:24:31.796Z,99755.55
2023-03-21T10:26:59.039Z,99755.71
2023-03-21T10:29:30.586Z,99757.42
2023-03-21T10:31:57.225Z,99753.27
2023-03-21T10:37:24.041Z,99748.38
2023-03-21T10:39:53.747Z,99746.42
2023-03-21T10:42:23.933Z,99738.88
2023-03-21T10:44:53.335Z,99735.64
2023-03-21T10:47:26.014Z,99739.45
2023-03-21T10:50:09.949Z,99737.21
2023-03-21T10:52:41.943Z,99739.60
2023-03-21T10:55:19.575Z,99739.93
2023-03-21T10:57:47.263Z,99742.33
2023-03-21T11:00:25.669Z,99740.02
2023-03-21T11:02:54.414Z,99739.15
2023-03-21T11:05:33.026Z,99743.13
2023-03-21T11:08:01.004Z,99739.52
2023-03-21T11:10:38.023Z,99741.88
2023-03-21T11:13:17.670Z,99738.09
2023-03-21T11:16:03.702Z,99732.07
2023-03-21T11:18:33.319Z,99733.09
2023-03-21T11:21:08.922Z,99732.59
2023-03-21T11:23:40.036Z,99732.07
2023-03-21T11:26:12.055Z,99731.23
2023-03-21T11:28:41.483Z,99727.81
2023-03-21T11:31:09.465Z,99725.92
2023-03-21T11:33:45.990Z,99724.10
2023-03-21T11:36:18.240Z,99727.06
2023-03-21T11:38:49.905Z,99726.61
2023-03-21T11:41:40.053Z,99725.75
2023-03-21T11:44:07.043Z,99727.23
2023-03-21T11:46:41.042Z,99721.94
2023-03-21T11:49:09.557Z,99720.46
2023-03-21T11:51:53.002Z,99715.33
2023-03-21T11:54:35.271Z,99711.65
2023-03-21T11:57:37.221Z,99708.60
2023-03-21T12:00:22.580Z,99704.14
2023-03-21T12:03:21.917Z,99701.05
2023-03-21T12:05:56.205Z,99699.22
2023-03-21T12:08:38.018Z,99696.73
2023-03-21T12:11:37.736Z,99694.33
2023-03-21T12:14:31.033Z,99695.91
2023-03-21T12:17:06.739Z,99691.36
2023-03-21T12:19:50.955Z,99688.34
2023-03-21T12:22:47.360Z,99684.47
2023-03-21T12:25:30.539Z,99680.73
2023-03-21T12:28:32.711Z,99681.91
2023-03-21T12:31:18.033Z,99675.81
2023-03-21T12:33:44.557Z,99673.80
2023-03-21T12:36:27.160Z,99673.75
2023-03-21T12:39:18.593Z,99671.17
2023-03-21T12:41:57.078Z,99665.69
2023-03-21T12:44:29.200Z,99665.06
2023-03-21T12:47:01.354Z,99665.95
2023-03-21T12:49:36.662Z,99665.38
2023-03-21T12:52:11.821Z,99661.92
2023-03-21T12:54:42.772Z,99656.73
2023-03-21T12:57:15.537Z,99653.49
2023-03-21T12:59:50.397Z,99647.13
2023-03-21T13:02:36.785Z,99646.08
2023-03-21T13:05:10.836Z,99639.69
2023-03-21T13:07:43.480Z,99637.14
2023-03-21T13:10:16.918Z,99635.02
2023-03-21T13:12:51.191Z,99635.11
2023-03-21T13:15:39.517Z,99630.63
2023-03-21T13:18:53.803Z,99624.16
2023-03-21T13:21:41.718Z,99624.21
2023-03-21T13:24:24.873Z,99624.18
2023-03-21T13:27:28.465Z,99621.90
2023-03-21T13:30:00.454Z,99623.80
2023-03-21T13:32:31.947Z,99623.79
2023-03-21T13:35:01.503Z,99620.98
2023-03-21T13:37:35.092Z,99618.83
2023-03-21T13:40:12.125Z,99613.41
2023-03-21T13:42:46.041Z,99607.93
2023-03-21T13:45:31.280Z,99605.88
2023-03-21T13:48:00.885Z,99601.36
2023-03-21T13:50:36.512Z,99596.38
2023-03-21T13:53:14.992Z,99593.13
2023-03-21T13:55:47.128Z,99590.40
2023-03-21T13:58:37.884Z,99591.42
2023-03-21T14:01:10.000Z,99586.06
2023-03-21T14:03:36.493Z,99585.95
2023-03-21T14:06:03.217Z,99587.27
2023-03-21T14:08:37.135Z,99586.25
2023-03-21T14:11:07.554Z,99582.31
2023-03-21T14:13:38.044Z,99578.11
2023-03-21T14:16:17.068Z,99574.48
2023-03-21T14:18:54.127Z,99571.39
2023-03-21T14:21:25.432Z,99575.93
2023-03-21T14:24:07.671Z,99576.11
2023-03-21T14:26:48.075Z,99577.05
2023-03-21T14:29:31.708Z,99580.84
2023-03-21T14:32:00.259Z,99579.35
2023-03-21T14:34:29.566Z,99575.36
2023-03-21T14:36:58.454Z,99573.99
2023-03-21T14:39:29.782Z,99571.64
2023-03-21T14:42:02.779Z,99569.88
2023-03-21T14:44:54.876Z,99567.95
2023-03-21T14:47:26.088Z,99564.64
2023-03-21T14:49:53.578Z,99569.55
2023-03-21T14:52:22.634Z,99567.59
2023-03-21T14:54:49.902Z,99565.46
2023-03-21T14:57:23.027Z,99565.32
2023-03-21T14:59:53.278Z,99562.88
2023-03-21T15:02:25.352Z,99561.36
2023-03-21T15:04:55.571Z,99561.31
2023-03-21T15:07:26.336Z,99557.30
2023-03-21T15:09:58.117Z,99563.31
2023-03-21T15:12:24.701Z,99556.52
2023-03-21T15:14:51.645Z,99559.91
2023-03-21T15:17:19.384Z,99556.23
2023-03-21T15:19:45.921Z,99554.98
2023-03-21T15:22:23.284Z,99551.61
2023-03-21T15:24:54.308Z,99550.45
2023-03-21T15:27:24.760Z,99551.70
2023-03-21T15:29:56.811Z,99553.30
2023-03-21T15:32:26.129Z,99552.46
2023-03-21T15:34:56.404Z,99553.13
2023-03-21T15:37:28.766Z,99554.87
2023-03-21T15:40:09.537Z,99554.00
2023-03-21T15:42:41.263Z,99552.67
2023-03-21T15:45:32.496Z,99555.89
2023-03-21T15:48:03.097Z,99553.20
2023-03-21T15:50:39.448Z,99552.39
2023-03-21T15:53:17.163Z,99549.64
2023-03-21T15:55:52.149Z,99549.67
2023-03-21T15:58:25.358Z,99546.81
2023-03-21T16:00:55.658Z,99547.77
2023-03-21T16:03:30.439Z,99548.23
2023-03-21T16:06:15.423Z,99547.98
2023-03-21T16:08:47.979Z,99540.80
2023-03-21T16:11:27.074Z,99535.00
2023-03-21T16:13:55.402Z,99531.39
2023-03-21T16:16:27.733Z,99529.02
2023-03-21T16:18:56.161Z,99524.23
2023-03-21T16:21:28.677Z,99523.48
2023-03-21T16:23:56.136Z,99518.96
2023-03-21T16:26:25.861Z,99520.73
2023-03-21T16:28:53.062Z,99521.61
2023-03-21T16:31:22.261Z,99522.64
2023-03-21T16:33:49.165Z,99518.55
2023-03-21T16:36:19.361Z,99519.92
2023-03-21T16:38:47.493Z,99515.69
2023-03-21T16:41:14.630Z,99518.42
2023-03-21T16:43:45.643Z,99517.71
2023-03-21T16:46:13.327Z,99520.60
2023-03-21T16:48:41.131Z,99525.32
2023-03-21T16:51:13.197Z,99525.20
2023-03-21T16:53:39.824Z,99529.98
2023-03-21T16:56:06.539Z,99535.86
2023-03-21T16:58:32.961Z,99534.92
2023-03-21T17:00:59.542Z,99532.94
2023-03-21T17:03:26.245Z,99530.84
2023-03-21T17:05:52.757Z,99535.13
2023-03-21T17:08:21.831Z,99532.39
2023-03-21T17:10:48.343Z,99531.30
2023-03-21T17:13:14.811Z,99528.86
2023-03-21T17:15:42.175Z,99532.58
2023-03-21T17:18:09.897Z,99530.36
2023-03-21T17:20:38.325Z,99528.80
2023-03-21T17:23:05.262Z,99530.89
2023-03-21T17:25:31.856Z,99531.48
2023-03-21T17:27:58.382Z,99535.36
2023-03-21T17:30:33.367Z,99537.16
2023-03-21T17:33:00.596Z,99540.70
2023-03-21T17:35:27.790Z,99540.21
2023-03-21T17:37:58.405Z,99540.48
2023-03-21T17:40:28.423Z,99541.02
2023-03-21T17:42:56.560Z,99545.08
2023-03-21T17:45:23.234Z,99549.84
2023-03-21T17:47:50.676Z,99553.51
2023-03-21T17:50:21.411Z,99553.18
2023-03-21T17:52:50.644Z,99553.84
2023-03-21T17:55:21.077Z,99555.92
2023-03-21T17:57:49.031Z,99554.39
2023-03-21T18:00:22.891Z,99554.91
2023-03-21T18:02:50.449Z,99552.10
2023-03-21T18:05:17.052Z,99547.35
2023-03-21T18:08:08.791Z,99532.04
2023-03-21T18:10:31.856Z,99527.77
2023-03-21T18:12:59.056Z,99538.97
2023-03-21T18:15:30.153Z,99539.54
2023-03-21T18:17:57.594Z,99540.92
2023-03-21T18:20:44.548Z,99552.34
2023-03-21T18:23:14.334Z,99566.59
2023-03-21T18:25:41.904Z,99566.73
2023-03-21T18:28:11.894Z,99565.84
2023-03-21T18:30:56.928Z,99565.66
2023-03-21T18:33:27.351Z,99561.90
2023-03-21T18:35:58.764Z,99554.77
2023-03-21T18:38:27.911Z,99551.98
2023-03-21T18:40:55.124Z,99548.52
2023-03-21T18:46:08.676Z,99557.94
2023-03-21T18:48:35.649Z,99558.95
2023-03-21T18:51:03.242Z,99567.30
2023-03-21T18:53:29.930Z,99571.43
2023-03-21T18:55:57.526Z,99575.64
2023-03-21T18:58:25.285Z,99576.02
2023-03-21T19:00:53.694Z,99573.84
2023-03-21T19:03:34.328Z,99566.02
2023-03-21T19:06:04.001Z,99554.95
2023-03-21T19:08:31.318Z,99554.35
2023-03-21T19:11:03.341Z,99551.44
2023-03-21T19:13:32.975Z,99549.15
2023-03-21T19:16:02.374Z,99550.61
2023-03-21T19:18:50.302Z,99559.21
2023-03-21T19:21:19.834Z,99553.71
2023-03-21T19:26:33.154Z,99549.34
2023-03-21T19:28:59.749Z,99551.45
2023-03-21T19:31:26.808Z,99547.30
2023-03-21T19:33:53.398Z,99550.03
2023-03-21T19:36:22.752Z,99552.77
2023-03-21T19:38:49.870Z,99563.78
2023-03-21T19:41:16.999Z,99570.17
2023-03-21T19:43:53.199Z,99565.20
2023-03-21T19:46:24.554Z,99563.23
2023-03-21T19:48:56.256Z,99558.92
2023-03-21T19:51:30.244Z,99557.58
2023-03-21T19:54:03.252Z,99556.76
2023-03-21T19:56:31.600Z,99553.47
2023-03-21T19:58:58.880Z,99557.27
2023-03-21T20:01:26.245Z,99559.27
2023-03-21T20:03:52.794Z,99561.92
2023-03-21T20:06:19.926Z,99561.33
2023-03-21T20:09:37.652Z,99569.80
2023-03-21T20:11:33.611Z,99569.84
2023-03-21T20:14:02.841Z,99571.76
2023-03-21T20:16:34.713Z,99568.43
2023-03-21T20:19:08.727Z,99565.23
2023-03-21T20:21:46.192Z,99561.19
2023-03-21T20:24:14.793Z,99556.48
2023-03-21T20:26:41.266Z,99558.17
2023-03-21T20:29:48.731Z,99562.08
2023-03-21T20:31:54.653Z,99566.02
2023-03-21T20:34:21.770Z,99570.59
2023-03-21T20:36:49.079Z,99574.84
2023-03-21T20:39:15.715Z,99578.35
2023-03-21T20:41:42.262Z,99579.20
2023-03-21T20:46:56.656Z,99570.16
2023-03-21T20:49:24.345Z,99575.45
2023-03-21T20:54:38.203Z,99574.32
2023-03-21T20:57:05.234Z,99577.10
2023-03-21T20:59:32.062Z,99570.58
2023-03-21T21:01:58.812Z,99567.88
2023-03-21T21:04:48.178Z,99566.33
2023-03-21T21:07:20.338Z,99561.47
2023-03-21T21:09:47.873Z,99558.71
2023-03-21T21:12:16.436Z,99557.77
2023-03-21T21:14:43.713Z,99557.77
2023-03-21T21:17:28.377Z,99551.98
2023-03-21T21:19:56.912Z,99557.92
2023-03-21T21:22:23.438Z,99564.35
2023-03-21T21:24:49.903Z,99566.64
2023-03-21T21:27:16.430Z,99566.98
2023-03-21T21:29:46.694Z,99565.48
2023-03-21T21:32:16.813Z,99564.83
2023-03-21T21:34:43.303Z,99567.56
2023-03-21T21:37:09.810Z,99569.60
2023-03-21T21:39:38.002Z,99569.82
2023-03-21T21:42:05.463Z,99568.63
2023-03-21T21:44:32.098Z,99570.70
2023-03-21T21:46:58.744Z,99564.85
2023-03-21T21:49:25.259Z,99575.05
2023-03-21T21:51:51.866Z,99574.11
2023-03-21T21:54:18.636Z,99578.20
2023-03-21T21:56:48.508Z,99571.46
2023-03-21T21:59:18.556Z,99568.01
2023-03-21T22:01:46.652Z,99562.83
2023-03-21T22:04:14.426Z,99559.39
2023-03-21T22:06:42.295Z,99556.76
2023-03-21T22:09:09.134Z,99549.79
2023-03-21T22:11:36.173Z,99550.05
2023-03-21T22:14:03.055Z,99550.61
2023-03-21T22:16:29.581Z,99550.45
2023-03-21T22:18:56.163Z,99559.45
2023-03-21T22:21:22.726Z,99562.75
2023-03-21T22:23:49.237Z,99571.32
2023-03-21T22:26:16.150Z,99574.48
2023-03-21T22:28:43.499Z,99580.89
2023-03-21T22:31:12.909Z,99581.71
2023-03-21T22:33:39.628Z,99580.71
2023-03-21T22:36:06.725Z,99585.30
2023-03-21T22:38:34.609Z,99589.53
2023-03-21T22:41:05.318Z,99590.34
2023-03-21T22:43:34.279Z,99592.21
2023-03-21T22:46:05.019Z,99589.59
2023-03-21T22:48:32.670Z,99592.33
2023-03-21T22:51:00.008Z,99590.52
2023-03-21T22:53:26.957Z,99596.98
2023-03-21T22:55:53.934Z,99593.88
2023-03-21T22:58:20.667Z,99593.30
2023-03-21T23:00:47.806Z,99593.95
2023-03-21T23:03:16.703Z,99593.89
2023-03-21T23:05:44.712Z,99593.48
2023-03-21T23:08:12.403Z,99592.17
2023-03-21T23:10:39.806Z,99588.40
2023-03-21T23:13:06.698Z,99586.96
2023-03-21T23:15:33.121Z,99585.16
2023-03-21T23:17:59.631Z,99589.11
2023-03-21T23:20:26.224Z,99580.66
2023-03-21T23:22:52.741Z,99577.25
2023-03-21T23:25:20.649Z,99575.10
2023-03-21T23:27:47.994Z,99575.49
2023-03-21T23:30:14.692Z,99573.90
2023-03-21T23:32:41.315Z,99572.91
2023-03-21T23:35:08.452Z,99568.34
2023-03-21T23:37:35.002Z,99568.46
2023-03-21T23:40:01.477Z,99572.36
2023-03-21T23:42:29.437Z,99571.23
2023-03-21T23:44:56.042Z,99571.21
2023-03-21T23:47:22.588Z,99570.46
2023-03-21T23:49:50.160Z,99568.85
2023-03-21T23:52:16.722Z,99576.65
2023-03-21T23:54:43.664Z,99573.80
2023-03-21T23:57:10.341Z,99576.36
2023-03-21T23:59:36.824Z,99576.63
